Time;durP1;ratioP1;P1;durP2;ratioP2;P2;SDS_P1;SDS_P2;PMS_P1;PMS_P2;Temp;Humidity;BMP_temperature;BMP_pressure;BME280_temperature;BME280_humidity;BME280_pressure;Samples;Min_cycle;Max_cycle;Signal;HPM_P1;HPM_P2
2023/05/29 00:02:14;;;;;;;12.50;2.35;;;10.50;99.90;;;;;;5004981;28;20047;-82
2023/05/29 00:04:40;;;;;;;13.38;3.00;;;10.50;99.90;;;;;;5005041;28;20037;-81
2023/05/29 00:07:06;;;;;;;15.82;2.83;;;10.50;99.90;;;;;;5005607;28;20044;-81
2023/05/29 00:09:31;;;;;;;10.85;2.72;;;10.50;99.90;;;;;;5005102;28;20037;-81
2023/05/29 00:11:57;;;;;;;12.45;2.90;;;10.50;99.90;;;;;;5021478;28;20087;-81
2023/05/29 00:14:23;;;;;;;14.25;2.90;;;10.40;99.90;;;;;;5005098;28;20033;-82
2023/05/29 00:16:50;;;;;;;11.43;2.42;;;10.40;99.90;;;;;;5005719;28;20047;-82
2023/05/29 00:19:19;;;;;;;11.35;2.30;;;10.40;99.90;;;;;;5026911;28;20041;-82
2023/05/29 00:21:47;;;;;;;11.45;2.85;;;10.40;99.90;;;;;;5019790;28;20441;-81
2023/05/29 00:24:15;;;;;;;12.48;2.55;;;10.20;99.90;;;;;;5012135;28;20048;-82
2023/05/29 00:26:41;;;;;;;9.48;2.97;;;10.20;99.90;;;;;;5022126;28;20116;-82
2023/05/29 00:29:06;;;;;;;17.50;3.45;;;10.20;99.90;;;;;;5004742;28;20068;-81
2023/05/29 00:31:32;;;;;;;14.43;2.97;;;10.20;99.90;;;;;;5021212;28;20037;-82
2023/05/29 00:33:58;;;;;;;16.60;2.90;;;10.20;99.90;;;;;;5021565;28;20136;-82
2023/05/29 00:36:25;;;;;;;10.88;3.05;;;10.20;99.90;;;;;;5004820;28;20036;-82
2023/05/29 00:38:50;;;;;;;8.85;2.10;;;10.20;99.90;;;;;;5005124;28;20048;-81
2023/05/29 00:41:16;;;;;;;14.40;2.63;;;10.10;99.90;;;;;;5020618;28;20041;-82
2023/05/29 00:43:43;;;;;;;9.00;2.72;;;10.10;99.90;;;;;;5004495;28;20041;-82
2023/05/29 00:46:12;;;;;;;10.60;2.30;;;10.10;99.90;;;;;;5004188;28;20056;-82
2023/05/29 00:48:37;;;;;;;10.43;2.13;;;10.00;99.90;;;;;;5020277;28;20048;-82
2023/05/29 00:51:04;;;;;;;9.75;2.42;;;10.00;99.90;;;;;;5004198;28;20041;-82
2023/05/29 00:53:30;;;;;;;13.50;2.67;;;10.00;99.90;;;;;;5020779;28;20119;-82
2023/05/29 00:55:56;;;;;;;9.98;2.65;;;10.30;99.90;;;;;;5020925;28;20068;-81
2023/05/29 00:58:22;;;;;;;9.18;2.70;;;10.00;99.90;;;;;;5036882;28;20043;-81
2023/05/29 01:00:47;;;;;;;9.23;2.10;;;10.00;99.90;;;;;;5020271;28;20045;-81
2023/05/29 01:03:18;;;;;;;12.70;2.50;;;9.90;99.90;;;;;;5020447;28;20037;-81
2023/05/29 01:05:45;;;;;;;10.73;2.45;;;9.90;99.90;;;;;;5004534;28;20514;-81
2023/05/29 01:08:11;;;;;;;10.05;2.78;;;9.80;99.90;;;;;;5020554;28;20045;-81
2023/05/29 01:10:37;;;;;;;11.93;2.50;;;9.80;99.90;;;;;;5020347;28;20052;-81
2023/05/29 01:13:15;;;;;;;19.33;3.22;;;9.80;99.90;;;;;;5004237;28;20067;-81
2023/05/29 01:15:58;;;;;;;11.70;2.33;;;9.70;99.90;;;;;;5020389;28;20044;-81
2023/05/29 01:18:53;;;;;;;8.70;2.30;;;9.80;99.90;;;;;;5036709;28;20048;-81
2023/05/29 01:22:03;;;;;;;13.73;2.45;;;9.70;99.90;;;;;;5019710;28;20489;-81
2023/05/29 01:25:01;;;;;;;11.40;2.72;;;9.70;99.90;;;;;;5021324;28;20079;-81
2023/05/29 01:27:30;;;;;;;11.45;2.50;;;9.70;99.90;;;;;;5036296;28;20532;-82
2023/05/29 01:29:58;;;;;;;12.73;2.92;;;9.60;99.90;;;;;;5004026;28;20037;-82
2023/05/29 01:32:25;;;;;;;13.88;2.85;;;9.60;99.90;;;;;;5003881;28;20044;-81
2023/05/29 01:34:51;;;;;;;11.07;2.35;;;9.50;99.90;;;;;;5037536;28;20101;-82
2023/05/29 01:37:17;;;;;;;7.97;2.33;;;9.50;99.90;;;;;;5011790;28;20131;-82
2023/05/29 01:39:43;;;;;;;14.88;2.83;;;9.50;99.90;;;;;;5020011;28;20049;-82
2023/05/29 01:42:09;;;;;;;12.10;2.90;;;9.50;99.90;;;;;;5003560;28;20133;-81
2023/05/29 01:44:37;;;;;;;13.05;2.40;;;9.40;99.90;;;;;;5019640;28;20099;-81
2023/05/29 01:47:03;;;;;;;8.63;2.38;;;9.30;99.90;;;;;;5019385;28;20068;-81
2023/05/29 01:49:31;;;;;;;8.65;1.90;;;9.30;99.90;;;;;;5002741;28;20485;-81
2023/05/29 01:51:57;;;;;;;12.48;2.30;;;9.30;99.90;;;;;;5019441;28;20044;-81
2023/05/29 01:54:23;;;;;;;11.35;2.38;;;9.20;99.90;;;;;;5035690;28;20550;-81
2023/05/29 01:56:50;;;;;;;10.73;2.80;;;9.20;99.90;;;;;;5019407;28;20123;-81
2023/05/29 01:59:16;;;;;;;13.10;2.53;;;9.10;99.90;;;;;;5003006;28;20047;-81
2023/05/29 02:01:41;;;;;;;12.73;2.72;;;9.10;99.90;;;;;;5019374;28;20037;-81
2023/05/29 02:04:07;;;;;;;16.83;2.67;;;9.00;99.90;;;;;;5019147;28;20401;-81
2023/05/29 02:06:33;;;;;;;12.57;2.50;;;9.10;99.90;;;;;;5003398;28;20043;-81
2023/05/29 02:08:59;;;;;;;14.35;2.60;;;9.10;99.90;;;;;;5003216;28;20067;-82
2023/05/29 02:11:26;;;;;;;9.55;2.25;;;9.00;99.90;;;;;;5002595;28;20040;-82
2023/05/29 02:13:52;;;;;;;14.80;3.25;;;9.00;99.90;;;;;;5035495;28;20029;-82
2023/05/29 02:16:20;;;;;;;11.35;2.45;;;9.10;99.90;;;;;;5002533;28;20040;-82
2023/05/29 02:18:46;;;;;;;11.50;2.47;;;9.00;99.90;;;;;;5019026;28;20404;-81
2023/05/29 02:21:12;;;;;;;9.25;2.10;;;8.90;99.90;;;;;;5019010;28;20052;-81
2023/05/29 02:23:38;;;;;;;10.43;2.40;;;9.00;99.90;;;;;;5018652;28;20128;-81
2023/05/29 02:26:04;;;;;;;9.65;2.65;;;8.90;99.90;;;;;;5018790;28;20106;-81
2023/05/29 02:28:30;;;;;;;12.38;2.25;;;8.90;99.90;;;;;;5019255;28;20081;-82
2023/05/29 02:30:56;;;;;;;11.55;2.55;;;8.90;99.90;;;;;;5018928;28;20452;-81
2023/05/29 02:33:21;;;;;;;11.32;2.35;;;8.90;99.90;;;;;;5002437;28;20504;-81
2023/05/29 02:35:47;;;;;;;7.10;2.03;;;8.90;99.90;;;;;;5002234;28;20041;-81
2023/05/29 02:38:13;;;;;;;11.38;2.45;;;8.80;99.90;;;;;;5035470;28;20373;-82
2023/05/29 02:40:39;;;;;;;13.88;1.90;;;8.80;99.90;;;;;;5002404;28;20044;-82
2023/05/29 02:43:05;;;;;;;13.23;2.40;;;8.80;99.90;;;;;;5002253;28;20397;-82
2023/05/29 02:45:31;;;;;;;12.70;2.50;;;8.80;99.90;;;;;;5035709;28;20044;-81
2023/05/29 02:47:57;;;;;;;12.95;3.03;;;8.80;99.90;;;;;;5035330;28;20049;-81
2023/05/29 02:50:22;;;;;;;9.98;2.38;;;8.70;99.90;;;;;;5028930;28;20041;-81
2023/05/29 02:52:48;;;;;;;13.90;2.30;;;8.80;99.90;;;;;;5035307;28;20072;-82
2023/05/29 02:55:14;;;;;;;11.52;2.53;;;8.80;99.90;;;;;;5002578;28;20133;-82
2023/05/29 02:57:40;;;;;;;12.95;2.22;;;8.80;99.90;;;;;;5002361;28;20037;-82
2023/05/29 03:00:07;;;;;;;9.82;2.33;;;8.80;99.90;;;;;;5018875;28;20047;-82
2023/05/29 03:02:34;;;;;;;11.30;2.05;;;8.80;99.90;;;;;;5035005;28;20041;-82
2023/05/29 03:05:01;;;;;;;12.27;2.20;;;8.80;99.90;;;;;;5035277;28;20562;-81
2023/05/29 03:07:26;;;;;;;13.73;2.45;;;8.80;99.90;;;;;;5002047;28;20091;-82
2023/05/29 03:09:53;;;;;;;11.15;2.42;;;8.90;99.90;;;;;;5002499;28;20044;-81
2023/05/29 03:12:19;;;;;;;8.85;1.83;;;8.80;99.90;;;;;;5018820;28;20049;-81
2023/05/29 03:14:45;;;;;;;11.50;2.22;;;8.80;99.90;;;;;;5001898;28;20037;-81
2023/05/29 03:17:11;;;;;;;14.52;2.60;;;8.90;99.90;;;;;;5002376;28;20469;-81
2023/05/29 03:19:38;;;;;;;12.80;2.47;;;8.80;99.90;;;;;;5018206;28;20056;-80
2023/05/29 03:22:04;;;;;;;10.65;2.60;;;8.70;99.90;;;;;;5035379;28;20036;-81
2023/05/29 03:24:30;;;;;;;15.02;2.72;;;8.90;99.90;;;;;;5001991;28;20130;-81
2023/05/29 03:26:55;;;;;;;15.57;2.53;;;8.70;99.90;;;;;;5034762;28;20080;-80
2023/05/29 03:29:21;;;;;;;11.85;2.75;;;8.80;99.90;;;;;;5001884;28;20131;-81
2023/05/29 03:31:47;;;;;;;13.70;2.45;;;8.60;99.90;;;;;;5001877;28;20124;-82
2023/05/29 03:34:13;;;;;;;10.43;2.30;;;8.60;99.90;;;;;;5002025;28;20045;-82
2023/05/29 03:36:39;;;;;;;7.45;2.17;;;8.70;99.90;;;;;;5018510;28;20362;-82
2023/05/29 03:39:05;;;;;;;9.35;2.47;;;8.50;99.90;;;;;;5002151;28;20385;-82
2023/05/29 03:41:30;;;;;;;12.10;2.17;;;8.50;99.90;;;;;;5018078;28;20033;-82
2023/05/29 03:43:56;;;;;;;13.68;3.22;;;8.50;99.90;;;;;;5002138;28;20037;-82
2023/05/29 03:46:22;;;;;;;9.88;2.05;;;8.40;99.90;;;;;;5017828;28;20087;-82
2023/05/29 03:48:48;;;;;;;7.25;2.40;;;8.30;99.90;;;;;;5001264;28;20163;-82
2023/05/29 03:51:13;;;;;;;11.13;2.65;;;8.40;99.90;;;;;;5018342;28;20080;-82
2023/05/29 03:53:39;;;;;;;10.25;2.88;;;8.40;99.90;;;;;;5002362;28;20047;-81
2023/05/29 03:56:05;;;;;;;11.10;2.45;;;8.30;99.90;;;;;;5002974;28;20409;-81
2023/05/29 03:58:31;;;;;;;12.80;2.15;;;8.30;99.90;;;;;;5021706;28;20124;-82
2023/05/29 04:00:57;;;;;;;11.43;2.22;;;8.40;99.90;;;;;;5007412;28;20044;-82
2023/05/29 04:03:22;;;;;;;11.45;2.20;;;8.40;99.90;;;;;;5029771;28;20040;-81
2023/05/29 04:05:48;;;;;;;8.73;2.13;;;8.30;99.90;;;;;;5020855;28;20041;-81
2023/05/29 04:08:14;;;;;;;12.77;2.67;;;8.30;99.90;;;;;;5005564;28;20048;-82
2023/05/29 04:10:40;;;;;;;17.70;2.55;;;8.30;99.90;;;;;;5021928;28;20040;-82
2023/05/29 04:13:08;;;;;;;10.68;2.55;;;8.20;99.90;;;;;;5005252;28;20421;-82
2023/05/29 04:15:34;;;;;;;12.43;2.42;;;8.20;99.90;;;;;;5005360;28;20041;-82
2023/05/29 04:18:00;;;;;;;14.18;2.63;;;8.20;99.90;;;;;;5004835;28;20052;-82
2023/05/29 04:20:26;;;;;;;9.75;2.78;;;8.20;99.90;;;;;;5020955;28;20076;-82
2023/05/29 04:22:52;;;;;;;20.40;3.42;;;8.30;99.90;;;;;;5021531;28;20384;-81
2023/05/29 04:25:17;;;;;;;13.88;3.03;;;8.20;99.90;;;;;;5004766;28;20037;-81
2023/05/29 04:27:49;;;;;;;13.35;3.30;;;8.10;99.90;;;;;;5004689;28;20040;-81
2023/05/29 04:30:16;;;;;;;11.32;2.92;;;8.20;99.90;;;;;;5021162;28;20067;-81
2023/05/29 04:32:42;;;;;;;10.73;2.55;;;8.20;99.90;;;;;;5021112;28;20128;-81
2023/05/29 04:35:09;;;;;;;11.20;2.53;;;8.20;99.90;;;;;;5021860;28;20345;-82
2023/05/29 04:37:38;;;;;;;15.27;2.88;;;8.20;99.90;;;;;;5021083;28;20049;-81
2023/05/29 04:40:09;;;;;;;10.43;2.20;;;8.20;99.90;;;;;;5021367;28;20043;-81
2023/05/29 04:42:40;;;;;;;9.45;2.38;;;8.20;99.90;;;;;;5020884;28;20037;-81
2023/05/29 04:45:06;;;;;;;13.32;3.08;;;8.20;99.90;;;;;;5021106;28;20047;-82
2023/05/29 04:47:36;;;;;;;14.50;2.72;;;8.30;99.90;;;;;;4988420;28;20409;-81
2023/05/29 04:50:02;;;;;;;13.27;2.35;;;8.30;99.90;;;;;;5020229;28;20049;-81
2023/05/29 04:52:28;;;;;;;9.40;2.40;;;8.30;99.90;;;;;;5004482;28;20055;-81
2023/05/29 04:54:55;;;;;;;16.08;3.15;;;8.30;99.90;;;;;;5020534;28;20048;-81
2023/05/29 04:57:20;;;;;;;17.67;2.83;;;8.40;99.90;;;;;;5020571;28;20128;-81
2023/05/29 04:59:46;;;;;;;12.40;2.65;;;8.40;99.90;;;;;;5004172;28;20148;-81
2023/05/29 05:02:12;;;;;;;9.63;2.50;;;8.50;99.90;;;;;;5036934;28;20450;-81
2023/05/29 05:04:37;;;;;;;13.55;2.97;;;8.50;99.90;;;;;;5004001;28;20045;-80
2023/05/29 05:07:05;;;;;;;15.95;2.65;;;8.60;99.90;;;;;;5003455;28;20055;-82
2023/05/29 05:09:31;;;;;;;14.50;3.05;;;8.70;99.90;;;;;;5020043;28;20044;-82
2023/05/29 05:11:57;;;;;;;13.18;2.88;;;8.70;99.90;;;;;;5004579;28;20488;-86
2023/05/29 05:14:23;;;;;;;12.73;2.40;;;8.70;99.90;;;;;;5022580;28;20025;-81
2023/05/29 05:16:49;;;;;;;13.65;3.20;;;9.10;99.90;;;;;;5032937;28;20044;-81
2023/05/29 05:19:15;;;;;;;19.90;2.50;;;8.80;99.90;;;;;;5020243;28;20378;-82
2023/05/29 05:21:40;;;;;;;14.77;2.33;;;8.80;99.90;;;;;;5020502;28;20473;-82
2023/05/29 05:24:06;;;;;;;13.20;3.13;;;9.00;99.90;;;;;;5036705;28;20474;-82
2023/05/29 05:26:32;;;;;;;13.13;2.63;;;8.90;99.90;;;;;;5020074;28;20068;-82
2023/05/29 05:28:57;;;;;;;8.82;2.15;;;8.90;99.90;;;;;;5003602;28;20044;-82
2023/05/29 05:31:25;;;;;;;12.07;2.92;;;8.90;99.90;;;;;;5020504;28;20045;-81
2023/05/29 05:33:50;;;;;;;17.83;2.97;;;8.90;99.90;;;;;;5019821;28;20087;-81
2023/05/29 05:36:16;;;;;;;12.60;2.75;;;9.00;99.90;;;;;;5020119;28;20076;-81
2023/05/29 05:38:42;;;;;;;15.00;3.30;;;9.00;99.90;;;;;;5003357;28;20456;-80
2023/05/29 05:41:08;;;;;;;13.38;3.00;;;9.10;99.90;;;;;;5003200;28;20512;-82
2023/05/29 05:43:33;;;;;;;14.27;2.92;;;9.10;99.90;;;;;;5019833;28;20037;-82
2023/05/29 05:45:59;;;;;;;10.77;2.28;;;9.20;99.90;;;;;;5036101;28;20079;-81
2023/05/29 05:48:25;;;;;;;10.00;2.58;;;9.30;99.90;;;;;;5036440;28;20512;-81
2023/05/29 05:50:51;;;;;;;11.63;2.50;;;9.40;99.90;;;;;;5003001;28;20401;-82
2023/05/29 05:53:16;;;;;;;15.63;2.58;;;9.50;99.90;;;;;;5036364;28;20502;-81
2023/05/29 05:55:43;;;;;;;12.00;2.65;;;9.60;99.90;;;;;;5003120;28;20127;-81
2023/05/29 05:58:09;;;;;;;17.48;2.95;;;9.60;99.90;;;;;;5019623;28;20088;-81
2023/05/29 06:00:35;;;;;;;10.18;2.47;;;9.70;99.90;;;;;;5019471;28;20072;-82
2023/05/29 06:03:03;;;;;;;16.65;3.35;;;9.80;99.90;;;;;;5003204;28;20051;-82
2023/05/29 06:05:29;;;;;;;11.40;2.53;;;10.00;99.90;;;;;;5003559;28;20067;-81
2023/05/29 06:07:55;;;;;;;13.50;2.42;;;10.10;99.90;;;;;;5002922;28;20200;-82
2023/05/29 06:10:21;;;;;;;10.80;2.30;;;10.20;99.90;;;;;;5002415;28;20151;-82
2023/05/29 06:12:46;;;;;;;12.40;2.38;;;10.30;99.90;;;;;;5019017;28;20044;-82
2023/05/29 06:15:13;;;;;;;14.05;2.83;;;10.40;99.90;;;;;;5002789;28;20068;-81
2023/05/29 06:17:39;;;;;;;14.68;3.05;;;10.60;99.90;;;;;;5018892;28;20063;-80
2023/05/29 06:20:10;;;;;;;12.25;2.63;;;10.60;99.90;;;;;;5018145;28;20580;-82
2023/05/29 06:22:36;;;;;;;9.95;2.40;;;10.70;99.90;;;;;;5019629;28;20458;-81
2023/05/29 06:25:02;;;;;;;10.75;2.35;;;10.80;99.90;;;;;;5002795;28;20036;-81
2023/05/29 06:27:28;;;;;;;10.70;2.50;;;10.90;99.90;;;;;;5012879;28;20105;-80
2023/05/29 06:29:54;;;;;;;10.30;2.08;;;11.00;99.90;;;;;;5011741;28;20076;-81
2023/05/29 06:32:20;;;;;;;16.77;3.08;;;11.20;99.90;;;;;;5019532;28;20056;-81
2023/05/29 06:34:45;;;;;;;12.13;3.28;;;11.30;99.90;;;;;;5002847;28;20480;-81
2023/05/29 06:37:11;;;;;;;15.35;2.35;;;11.40;99.90;;;;;;5002773;28;20048;-80
2023/05/29 06:39:37;;;;;;;10.35;2.95;;;11.60;99.90;;;;;;5002232;28;20049;-81
2023/05/29 06:42:03;;;;;;;11.65;2.33;;;11.80;99.90;;;;;;5018943;28;20033;-81
2023/05/29 06:44:29;;;;;;;9.32;2.40;;;11.90;99.90;;;;;;5002502;28;20392;-81
2023/05/29 06:46:54;;;;;;;9.50;2.70;;;11.90;99.90;;;;;;5002216;28;20064;-82
2023/05/29 06:49:20;;;;;;;9.73;2.20;;;11.90;99.90;;;;;;5002211;28;20048;-82
2023/05/29 06:51:46;;;;;;;12.13;3.08;;;12.00;99.90;;;;;;5002157;28;20518;-82
2023/05/29 06:54:13;;;;;;;11.95;2.25;;;12.00;99.90;;;;;;5002443;28;20041;-80
2023/05/29 06:56:39;;;;;;;13.20;2.90;;;12.10;99.90;;;;;;5018835;28;20198;-81
2023/05/29 06:59:05;;;;;;;22.27;2.72;;;12.20;99.90;;;;;;5002649;28;20124;-81
2023/05/29 07:01:31;;;;;;;12.55;2.30;;;12.20;99.90;;;;;;5002432;28;20041;-81
2023/05/29 07:03:56;;;;;;;11.98;2.60;;;12.40;99.90;;;;;;5002300;28;20033;-81
2023/05/29 07:06:22;;;;;;;18.45;3.10;;;12.50;99.90;;;;;;5018682;28;20037;-81
2023/05/29 07:08:48;;;;;;;15.65;2.75;;;12.50;99.90;;;;;;5018578;28;20473;-81
2023/05/29 07:11:13;;;;;;;12.32;2.85;;;12.50;99.90;;;;;;5018740;28;20040;-81
2023/05/29 07:13:39;;;;;;;9.27;2.45;;;12.50;99.90;;;;;;5002334;28;20438;-81
2023/05/29 07:16:05;;;;;;;16.58;3.42;;;12.40;99.90;;;;;;5002061;28;20061;-81
2023/05/29 07:18:31;;;;;;;14.25;2.80;;;12.50;99.90;;;;;;5002188;28;20044;-81
2023/05/29 07:20:57;;;;;;;14.55;3.00;;;12.60;99.90;;;;;;5001489;28;20045;-81
2023/05/29 07:23:24;;;;;;;13.20;2.60;;;12.70;99.90;;;;;;5034862;28;20041;-81
2023/05/29 07:25:50;;;;;;;13.73;2.78;;;12.90;99.90;;;;;;5001890;28;20036;-81
2023/05/29 07:28:16;;;;;;;14.25;3.15;;;13.10;99.90;;;;;;5001858;28;20132;-82
2023/05/29 07:30:41;;;;;;;13.30;3.00;;;13.20;99.90;;;;;;5019107;28;20041;-82
2023/05/29 07:33:07;;;;;;;8.15;2.58;;;13.30;99.90;;;;;;5005945;28;20477;-82
2023/05/29 07:35:33;;;;;;;15.70;3.83;;;13.40;99.90;;;;;;5022068;28;20037;-82
2023/05/29 07:37:59;;;;;;;15.93;3.28;;;13.40;99.90;;;;;;5005880;28;20044;-81
2023/05/29 07:40:26;;;;;;;14.80;3.30;;;13.50;99.90;;;;;;5010967;28;20064;-81
2023/05/29 07:42:51;;;;;;;13.88;2.50;;;13.70;99.90;;;;;;5015046;28;20044;-81
2023/05/29 07:45:17;;;;;;;19.30;3.10;;;13.80;99.90;;;;;;5006608;28;20037;-82
2023/05/29 07:47:43;;;;;;;13.05;3.25;;;13.80;99.90;;;;;;5021825;28;20057;-82
2023/05/29 07:50:10;;;;;;;19.00;3.15;;;13.90;99.90;;;;;;5005550;28;20044;-82
2023/05/29 07:52:36;;;;;;;12.13;2.92;;;14.00;99.90;;;;;;5022262;28;20443;-81
2023/05/29 07:55:02;;;;;;;11.35;2.88;;;14.00;99.90;;;;;;5021573;28;20045;-81
2023/05/29 07:57:28;;;;;;;14.98;2.92;;;14.20;99.90;;;;;;5005546;28;20036;-81
2023/05/29 07:59:54;;;;;;;10.45;2.80;;;14.40;99.90;;;;;;5021697;28;20045;-81
2023/05/29 08:02:20;;;;;;;12.52;3.00;;;14.50;99.90;;;;;;5005317;28;20036;-81
2023/05/29 08:04:46;;;;;;;12.10;2.60;;;14.60;99.90;;;;;;5021498;28;20040;-81
2023/05/29 08:07:12;;;;;;;18.48;3.83;;;14.70;99.90;;;;;;5021721;28;20503;-82
2023/05/29 08:09:38;;;;;;;13.15;3.20;;;14.70;99.90;;;;;;5005416;28;20161;-82
2023/05/29 08:12:05;;;;;;;16.17;3.25;;;14.80;99.90;;;;;;5005402;28;20554;-81
2023/05/29 08:14:31;;;;;;;12.95;3.22;;;14.80;99.90;;;;;;5021986;28;20179;-81
2023/05/29 08:16:57;;;;;;;14.45;3.85;;;14.80;99.90;;;;;;5038193;28;20127;-81
2023/05/29 08:19:23;;;;;;;14.32;3.40;;;14.90;99.90;;;;;;5004632;28;20441;-81
2023/05/29 08:21:49;;;;;;;13.77;3.30;;;14.90;99.90;;;;;;5004940;28;20285;-81
2023/05/29 08:24:15;;;;;;;14.40;3.33;;;15.00;99.90;;;;;;5004903;28;20037;-81
2023/05/29 08:26:41;;;;;;;11.93;3.22;;;15.20;99.90;;;;;;5004945;28;20041;-81
2023/05/29 08:29:06;;;;;;;14.10;3.53;;;15.30;99.90;;;;;;5037703;28;20158;-81
2023/05/29 08:31:32;;;;;;;14.18;3.58;;;15.40;99.90;;;;;;5021386;28;20067;-81
2023/05/29 08:33:58;;;;;;;10.13;3.20;;;15.40;99.90;;;;;;5020937;28;20049;-81
2023/05/29 08:36:25;;;;;;;9.57;2.60;;;15.60;99.90;;;;;;5004493;28;20086;-82
2023/05/29 08:38:51;;;;;;;13.30;3.10;;;15.90;99.90;;;;;;5020836;28;20040;-82
2023/05/29 08:41:49;;;;;;;12.02;2.78;;;16.10;99.90;;;;;;5004013;28;20123;-82
2023/05/29 08:44:20;;;;;;;15.25;3.78;;;16.30;99.90;;;;;;4990799;28;20170;-81
2023/05/29 08:46:46;;;;;;;12.00;3.42;;;16.30;99.90;;;;;;5036859;28;20412;-82
2023/05/29 08:49:17;;;;;;;15.40;3.08;;;16.20;99.90;;;;;;5004114;28;20072;-82
2023/05/29 08:51:46;;;;;;;12.90;3.22;;;16.30;99.90;;;;;;5020696;28;20044;-81
2023/05/29 08:54:15;;;;;;;18.17;3.45;;;16.20;99.90;;;;;;5024363;28;20174;-81
2023/05/29 08:56:41;;;;;;;14.80;3.10;;;16.20;99.90;;;;;;5026572;28;20070;-81
2023/05/29 08:59:07;;;;;;;14.43;3.25;;;16.20;99.90;;;;;;5005060;28;20132;-81
2023/05/29 09:01:35;;;;;;;11.25;3.50;;;16.30;99.90;;;;;;5037224;28;20053;-82
2023/05/29 09:04:01;;;;;;;11.23;2.92;;;16.20;99.50;;;;;;5020533;28;20477;-81
2023/05/29 09:06:27;;;;;;;10.93;3.45;;;16.30;99.90;;;;;;5004591;28;20041;-80
2023/05/29 09:08:54;;;;;;;14.38;3.28;;;16.40;99.90;;;;;;5004490;28;20086;-82
2023/05/29 09:11:21;;;;;;;13.68;3.50;;;16.50;99.90;;;;;;5020518;28;20091;-81
2023/05/29 09:13:46;;;;;;;12.25;3.78;;;16.50;99.40;;;;;;5004054;28;20107;-81
2023/05/29 09:16:12;;;;;;;12.60;2.88;;;16.50;99.60;;;;;;5020176;28;20049;-81
2023/05/29 09:18:38;;;;;;;15.32;3.50;;;16.40;99.00;;;;;;5003307;28;20041;-82
2023/05/29 09:21:10;;;;;;;10.65;3.15;;;16.30;99.10;;;;;;5003710;28;20033;-82
2023/05/29 09:23:36;;;;;;;15.88;3.42;;;16.20;98.80;;;;;;5004553;28;20029;-82
2023/05/29 09:26:03;;;;;;;11.00;3.20;;;16.10;99.00;;;;;;5019901;28;20397;-81
2023/05/29 09:28:31;;;;;;;17.60;3.60;;;16.20;99.30;;;;;;5004815;28;20386;-82
2023/05/29 09:30:57;;;;;;;12.88;3.00;;;16.20;99.30;;;;;;5003323;28;20044;-81
2023/05/29 09:33:22;;;;;;;16.67;3.35;;;16.20;98.90;;;;;;5019964;28;20040;-82
2023/05/29 09:35:50;;;;;;;12.70;3.00;;;16.20;98.60;;;;;;5003332;28;20041;-81
2023/05/29 09:38:19;;;;;;;13.95;3.40;;;16.10;98.70;;;;;;5036438;28;20044;-81
2023/05/29 09:40:46;;;;;;;12.65;3.65;;;16.00;98.60;;;;;;5019539;28;20505;-81
2023/05/29 09:43:13;;;;;;;17.20;3.63;;;16.00;98.80;;;;;;5019570;28;20040;-82
2023/05/29 09:45:43;;;;;;;15.95;3.33;;;16.00;98.80;;;;;;5019291;28;20056;-82
2023/05/29 09:48:17;;;;;;;15.65;3.42;;;16.00;98.70;;;;;;5019283;28;20061;-82
2023/05/29 09:50:44;;;;;;;14.63;3.05;;;16.00;98.10;;;;;;5019198;28;20574;-81
2023/05/29 09:53:21;;;;;;;16.05;3.70;;;15.90;97.50;;;;;;5018981;28;20167;-82
2023/05/29 09:55:51;;;;;;;14.43;3.15;;;15.90;98.00;;;;;;5035962;28;20055;-82
2023/05/29 09:58:21;;;;;;;9.95;3.03;;;16.00;98.30;;;;;;5020058;28;20080;-82
2023/05/29 10:00:48;;;;;;;14.73;3.00;;;16.10;98.70;;;;;;5019205;28;20055;-83
2023/05/29 10:03:14;;;;;;;14.02;3.47;;;16.30;98.50;;;;;;5003339;28;20043;-81
2023/05/29 10:05:41;;;;;;;17.52;3.72;;;16.40;98.40;;;;;;5036932;28;20048;-80
2023/05/29 10:08:15;;;;;;;13.82;3.08;;;16.40;98.50;;;;;;5024854;28;20467;-80
2023/05/29 10:10:43;;;;;;;11.07;2.95;;;16.50;98.40;;;;;;5006483;28;20117;-81
2023/05/29 10:13:12;;;;;;;9.90;2.97;;;16.50;98.30;;;;;;5019690;28;20044;-82
2023/05/29 10:15:40;;;;;;;11.85;3.38;;;16.50;98.50;;;;;;5019398;28;20041;-81
2023/05/29 10:18:20;;;;;;;18.67;3.25;;;16.60;98.20;;;;;;5019112;28;20056;-82
2023/05/29 10:20:55;;;;;;;13.63;3.20;;;16.70;97.60;;;;;;5035258;28;20450;-82
2023/05/29 10:23:23;;;;;;;12.60;3.28;;;16.60;97.90;;;;;;5019030;28;20044;-82
2023/05/29 10:25:53;;;;;;;16.17;3.70;;;16.60;97.30;;;;;;5002546;28;20064;-82
2023/05/29 10:28:23;;;;;;;15.40;3.70;;;16.40;96.60;;;;;;5002630;28;20596;-81
2023/05/29 10:30:52;;;;;;;13.93;3.38;;;16.40;97.10;;;;;;5019459;28;20048;-81
2023/05/29 10:33:44;;;;;;;14.55;3.65;;;16.50;97.40;;;;;;5018877;28;20467;-81
2023/05/29 10:36:15;;;;;;;12.43;3.08;;;16.50;97.20;;;;;;5018816;28;20045;-81
2023/05/29 10:38:45;;;;;;;12.77;3.03;;;16.60;97.10;;;;;;5018848;28;20047;-81
2023/05/29 10:41:40;;;;;;;16.23;3.42;;;16.70;97.10;;;;;;5035270;28;20037;-82
2023/05/29 10:44:31;;;;;;;14.95;3.38;;;16.70;97.00;;;;;;5006333;28;20048;-82
2023/05/29 10:46:59;;;;;;;11.88;2.88;;;16.80;96.80;;;;;;5018770;28;20453;-82
2023/05/29 10:49:25;;;;;;;14.93;3.17;;;16.80;96.10;;;;;;5034477;28;20049;-81
2023/05/29 10:51:52;;;;;;;16.65;3.70;;;16.70;95.80;;;;;;5002261;28;20086;-81
2023/05/29 10:54:25;;;;;;;13.50;3.00;;;16.70;96.00;;;;;;5018645;28;20055;-81
2023/05/29 10:57:00;;;;;;;16.40;3.08;;;16.70;96.30;;;;;;5034748;28;20115;-81
2023/05/29 10:59:27;;;;;;;14.43;3.20;;;16.70;96.50;;;;;;5018510;28;20072;-82
2023/05/29 11:01:54;;;;;;;16.10;3.35;;;16.70;96.40;;;;;;5018558;28;20045;-81
2023/05/29 11:04:20;;;;;;;13.00;2.80;;;16.70;96.20;;;;;;5002433;28;20114;-80
2023/05/29 11:06:46;;;;;;;19.27;3.25;;;16.80;96.60;;;;;;5039183;28;20548;-81
2023/05/29 11:09:32;;;;;;;14.50;3.70;;;16.90;96.60;;;;;;5022260;28;20128;-81
2023/05/29 11:12:32;;;;;;;15.90;3.33;;;16.90;96.30;;;;;;5022407;28;20120;-81
2023/05/29 11:15:06;;;;;;;16.73;3.17;;;17.10;96.00;;;;;;5007171;28;20037;-80
2023/05/29 11:17:55;;;;;;;16.83;2.97;;;17.10;95.90;;;;;;5022498;28;20041;-80
2023/05/29 11:20:49;;;;;;;12.52;3.97;;;17.10;96.30;;;;;;5023879;28;20037;-80
2023/05/29 11:23:17;;;;;;;17.05;3.35;;;17.20;95.50;;;;;;5036993;28;20441;-80
2023/05/29 11:25:47;;;;;;;13.27;3.33;;;17.20;95.90;;;;;;5022666;28;20037;-80
2023/05/29 11:28:13;;;;;;;13.95;3.78;;;17.30;94.90;;;;;;5022619;28;20128;-82
2023/05/29 11:30:42;;;;;;;12.68;2.97;;;17.20;94.70;;;;;;5038750;28;20037;-81
2023/05/29 11:33:12;;;;;;;12.90;3.28;;;17.20;94.90;;;;;;5005815;28;20485;-81
2023/05/29 11:35:39;;;;;;;12.68;3.35;;;17.20;95.40;;;;;;5022205;28;20040;-81
2023/05/29 11:38:05;;;;;;;10.70;3.05;;;17.30;95.80;;;;;;5005763;28;20040;-81
2023/05/29 11:40:37;;;;;;;12.75;3.47;;;17.40;95.60;;;;;;5005410;28;20202;-82
2023/05/29 11:43:03;;;;;;;13.52;3.33;;;17.50;95.70;;;;;;5005998;28;20075;-82
2023/05/29 11:45:33;;;;;;;14.02;3.35;;;17.60;95.30;;;;;;5005879;28;20438;-81
2023/05/29 11:48:01;;;;;;;15.52;3.33;;;17.70;95.10;;;;;;5005210;28;20060;-82
2023/05/29 11:50:29;;;;;;;14.48;3.78;;;17.60;95.00;;;;;;5037796;28;20044;-82
2023/05/29 11:52:57;;;;;;;14.68;3.70;;;17.60;94.90;;;;;;5038293;28;20049;-81
2023/05/29 11:55:23;;;;;;;13.18;3.45;;;17.60;94.90;;;;;;5004989;28;20048;-81
2023/05/29 11:57:58;;;;;;;15.48;3.47;;;17.70;94.80;;;;;;5005361;28;20045;-81
2023/05/29 12:00:25;;;;;;;12.30;2.80;;;17.70;95.40;;;;;;5021440;28;20048;-82
2023/05/29 12:02:51;;;;;;;10.95;3.00;;;17.80;95.20;;;;;;5021485;28;20504;-81
2023/05/29 12:05:21;;;;;;;13.10;2.60;;;17.90;94.50;;;;;;5021032;28;20033;-81
2023/05/29 12:07:51;;;;;;;12.07;3.33;;;17.90;94.10;;;;;;5021347;28;20033;-81
2023/05/29 12:10:19;;;;;;;16.73;3.55;;;18.00;94.10;;;;;;5021143;28;20051;-81
2023/05/29 12:13:03;;;;;;;12.52;3.45;;;17.90;93.80;;;;;;5021163;28;20045;-81
2023/05/29 12:15:28;;;;;;;12.73;2.85;;;17.90;93.20;;;;;;5005031;28;20037;-80
2023/05/29 12:17:55;;;;;;;17.35;3.80;;;17.80;94.00;;;;;;5020447;28;20047;-80
2023/05/29 12:20:27;;;;;;;11.30;2.88;;;17.80;93.80;;;;;;5004750;28;20123;-80
2023/05/29 12:23:00;;;;;;;14.25;3.47;;;17.80;93.80;;;;;;5037744;28;20032;-81
2023/05/29 12:25:27;;;;;;;13.68;3.00;;;17.80;93.60;;;;;;5005211;28;20072;-81
2023/05/29 12:27:56;;;;;;;11.25;2.80;;;17.80;93.80;;;;;;5004698;28;20037;-81
2023/05/29 12:30:22;;;;;;;13.65;3.08;;;17.90;93.60;;;;;;5021271;28;20041;-80
2023/05/29 12:32:51;;;;;;;13.15;2.78;;;18.10;93.90;;;;;;5021147;28;20044;-81
2023/05/29 12:35:19;;;;;;;12.23;3.22;;;18.20;93.80;;;;;;5020805;28;20045;-81
2023/05/29 12:37:46;;;;;;;10.82;3.03;;;18.40;92.90;;;;;;5026733;28;20052;-82
2023/05/29 12:40:19;;;;;;;11.15;2.90;;;18.50;92.60;;;;;;5023332;28;20072;-81
2023/05/29 12:42:46;;;;;;;15.27;3.53;;;18.70;92.80;;;;;;5021057;28;20041;-82
2023/05/29 12:45:12;;;;;;;11.85;3.38;;;18.90;92.70;;;;;;5004678;28;20469;-81
2023/05/29 12:47:38;;;;;;;15.55;3.22;;;19.00;92.40;;;;;;5004390;28;20078;-81